createdAt,value
2018-11-28T00:00:40.191Z,46.77
2018-11-28T00:03:08.955Z,50.10
2018-11-28T00:05:37.360Z,53.03
2018-11-28T00:08:05.899Z,44.40
2018-11-28T00:10:34.322Z,39.63
2018-11-28T00:13:02.760Z,49.70
2018-11-28T00:15:31.247Z,42.60
2018-11-28T00:17:59.660Z,140.60
2018-11-28T00:20:28.064Z,87.03
2018-11-28T00:22:56.480Z,82.97
2018-11-28T00:25:24.930Z,64.80
2018-11-28T00:27:53.359Z,53.10
2018-11-28T00:30:23.944Z,88.57
2018-11-28T00:32:52.366Z,54.10
2018-11-28T00:35:23.070Z,143.37
2018-11-28T00:37:51.552Z,76.13
2018-11-28T00:40:21.350Z,50.80
2018-11-28T00:42:49.814Z,82.70
2018-11-28T00:45:23.966Z,83.03
2018-11-28T00:47:52.428Z,52.83
2018-11-28T00:50:24.952Z,248.93
2018-11-28T00:52:53.385Z,266.87
2018-11-28T00:55:21.823Z,163.73
2018-11-28T00:57:50.256Z,173.57
2018-11-28T01:00:22.298Z,72.47
2018-11-28T01:02:50.957Z,66.37
2018-11-28T01:05:19.445Z,187.40
2018-11-28T01:07:49.172Z,342.30
2018-11-28T01:10:18.793Z,262.70
2018-11-28T01:12:47.632Z,478.73
2018-11-28T01:15:16.916Z,339.10
2018-11-28T01:17:45.412Z,315.17
2018-11-28T01:20:17.114Z,351.23
2018-11-28T01:22:45.565Z,275.17
2018-11-28T01:25:15.044Z,121.37
2018-11-28T01:27:43.489Z,33.43
2018-11-28T01:30:15.727Z,48.43
2018-11-28T01:32:44.604Z,78.93
2018-11-28T01:35:14.978Z,92.67
2018-11-28T01:37:43.499Z,366.40
2018-11-28T01:40:23.217Z,231.53
2018-11-28T01:42:51.692Z,312.50
2018-11-28T01:45:21.471Z,151.60
2018-11-28T01:47:49.901Z,304.77
2018-11-28T01:50:19.329Z,238.50
2018-11-28T01:52:47.741Z,146.27
2018-11-28T01:55:17.253Z,113.63
2018-11-28T01:57:45.700Z,84.70
2018-11-28T02:00:20.465Z,247.53
2018-11-28T02:02:50.454Z,174.57
2018-11-28T02:05:18.907Z,124.67
2018-11-28T02:07:47.398Z,120.20
2018-11-28T02:10:16.441Z,29.77
2018-11-28T02:12:44.951Z,50.53
2018-11-28T02:15:16.331Z,31.73
2018-11-28T02:17:44.879Z,42.13
2018-11-28T02:20:17.719Z,41.67
2018-11-28T02:22:46.491Z,36.50
2018-11-28T02:25:16.805Z,37.50
2018-11-28T02:27:45.854Z,41.40
2018-11-28T02:30:17.144Z,37.50
2018-11-28T02:32:46.244Z,38.53
2018-11-28T02:35:15.508Z,35.80
2018-11-28T02:37:43.987Z,36.93
2018-11-28T02:40:14.387Z,34.90
2018-11-28T02:42:42.855Z,34.63
2018-11-28T02:45:12.708Z,38.40
2018-11-28T02:47:41.120Z,33.17
2018-11-28T02:50:09.629Z,35.93
2018-11-28T02:52:38.049Z,36.43
2018-11-28T02:55:09.785Z,36.03
2018-11-28T02:57:38.235Z,32.83
2018-11-28T03:00:17.950Z,33.83
2018-11-28T03:02:46.495Z,37.53
2018-11-28T03:05:15.084Z,29.67
2018-11-28T03:07:43.647Z,35.87
2018-11-28T03:10:15.189Z,37.93
2018-11-28T03:12:43.655Z,34.77
2018-11-28T03:15:25.149Z,33.83
2018-11-28T03:17:53.536Z,34.47
2018-11-28T03:20:22.003Z,40.10
2018-11-28T03:22:50.432Z,33.73
2018-11-28T03:25:18.910Z,35.10
2018-11-28T03:27:47.351Z,33.90
2018-11-28T03:30:16.283Z,30.33
2018-11-28T03:32:44.800Z,28.90
2018-11-28T03:35:14.363Z,49.53
2018-11-28T03:37:43.130Z,59.47
2018-11-28T03:40:11.848Z,164.23
2018-11-28T03:42:40.608Z,53.90
2018-11-28T03:45:11.462Z,43.30
2018-11-28T03:47:40.001Z,23.93
2018-11-28T03:50:09.815Z,72.40
2018-11-28T03:52:39.043Z,45.20
2018-11-28T03:55:09.658Z,47.13
2018-11-28T03:57:38.101Z,36.10
2018-11-28T04:00:09.704Z,45.73
2018-11-28T04:02:38.141Z,67.67
2018-11-28T04:05:07.163Z,118.27
2018-11-28T04:07:35.866Z,41.47
2018-11-28T04:10:06.383Z,50.27
2018-11-28T04:12:34.775Z,55.77
2018-11-28T04:15:03.241Z,43.97
2018-11-28T04:17:31.639Z,34.63
2018-11-28T04:20:00.221Z,43.27
2018-11-28T04:22:28.638Z,45.73
2018-11-28T04:24:57.054Z,44.97
2018-11-28T04:27:25.511Z,47.43
2018-11-28T04:29:54.270Z,45.43
2018-11-28T04:32:22.398Z,50.67
2018-11-28T04:34:50.827Z,64.70
2018-11-28T04:37:19.261Z,51.93
2018-11-28T04:39:47.648Z,46.90
2018-11-28T04:42:16.148Z,48.50
2018-11-28T04:44:44.650Z,48.70
2018-11-28T04:47:14.165Z,59.17
2018-11-28T04:49:41.509Z,48.57
2018-11-28T04:52:09.975Z,54.23
2018-11-28T04:54:38.366Z,50.40
2018-11-28T04:57:06.831Z,57.47
2018-11-28T04:59:35.243Z,43.43
2018-11-28T05:02:03.695Z,130.20
2018-11-28T05:04:32.109Z,93.07
2018-11-28T05:07:31.683Z,162.00
2018-11-28T05:10:00.103Z,147.83
2018-11-28T05:12:28.584Z,146.20
2018-11-28T05:14:57.042Z,208.77
2018-11-28T05:17:25.467Z,126.03
2018-11-28T05:19:53.923Z,56.77
2018-11-28T05:22:22.308Z,113.23
2018-11-28T05:24:50.747Z,112.60
2018-11-28T05:27:19.151Z,48.50
2018-11-28T05:29:47.559Z,93.90
2018-11-28T05:32:15.972Z,88.77
2018-11-28T05:34:44.423Z,188.50
2018-11-28T05:37:12.854Z,87.90
2018-11-28T05:39:41.288Z,63.53
2018-11-28T05:42:09.700Z,157.80
2018-11-28T05:44:38.176Z,62.53
2018-11-28T05:47:06.784Z,145.80
2018-11-28T05:49:35.193Z,86.93
2018-11-28T05:52:03.622Z,185.23
2018-11-28T05:54:32.060Z,166.47
2018-11-28T05:57:00.483Z,99.37
2018-11-28T05:59:28.936Z,102.13
2018-11-28T06:01:57.348Z,111.37
2018-11-28T06:04:25.776Z,68.17
2018-11-28T06:06:54.210Z,64.43
2018-11-28T06:09:22.898Z,81.57
2018-11-28T06:11:51.344Z,83.17
2018-11-28T06:14:19.761Z,64.57
2018-11-28T06:16:48.160Z,84.27
2018-11-28T06:19:16.616Z,67.23
2018-11-28T06:21:45.032Z,48.63
2018-11-28T06:24:13.465Z,72.63
2018-11-28T06:26:41.888Z,53.07
2018-11-28T06:29:10.322Z,55.80
2018-11-28T06:31:38.765Z,61.97
2018-11-28T06:34:07.198Z,90.10
2018-11-28T06:36:35.750Z,65.07
2018-11-28T06:39:06.255Z,60.20
2018-11-28T06:41:34.727Z,59.97
2018-11-28T06:44:03.137Z,75.80
2018-11-28T06:46:31.760Z,70.47
2018-11-28T06:49:00.183Z,77.60
2018-11-28T06:51:28.633Z,64.60
2018-11-28T06:53:57.050Z,77.93
2018-11-28T06:56:25.503Z,65.97
2018-11-28T06:58:53.927Z,68.20
2018-11-28T07:01:23.442Z,80.57
2018-11-28T07:03:51.871Z,75.57
2018-11-28T07:06:20.330Z,70.57
2018-11-28T07:08:48.751Z,83.13
2018-11-28T07:11:17.201Z,79.93
2018-11-28T07:13:45.616Z,66.57
2018-11-28T07:16:14.056Z,82.80
2018-11-28T07:18:53.663Z,72.37
2018-11-28T07:21:22.075Z,91.90
2018-11-28T07:23:50.501Z,89.47
2018-11-28T07:26:18.934Z,101.50
2018-11-28T07:28:47.350Z,78.83
2018-11-28T07:31:16.428Z,91.07
2018-11-28T07:33:44.861Z,133.00
2018-11-28T07:36:13.285Z,113.93
2018-11-28T07:38:41.796Z,108.20
2018-11-28T07:41:10.204Z,103.57
2018-11-28T07:43:38.629Z,100.33
2018-11-28T07:46:07.331Z,76.90
2018-11-28T07:48:36.027Z,94.50
2018-11-28T07:51:04.493Z,76.77
2018-11-28T07:53:39.568Z,80.30
2018-11-28T07:56:07.987Z,86.53
2018-11-28T07:58:36.407Z,82.20
2018-11-28T08:01:04.858Z,90.37
2018-11-28T08:03:33.301Z,89.83
2018-11-28T08:06:01.713Z,91.30
2018-11-28T08:08:34.387Z,85.33
2018-11-28T08:11:02.952Z,93.67
2018-11-28T08:13:31.363Z,100.90
2018-11-28T08:15:59.846Z,87.40
2018-11-28T08:18:28.284Z,84.87
2018-11-28T08:20:56.694Z,87.43
2018-11-28T08:23:25.117Z,81.70
2018-11-28T08:25:53.521Z,97.27
2018-11-28T08:28:22.314Z,92.50
2018-11-28T08:30:50.421Z,119.50
2018-11-28T08:33:18.850Z,100.90
2018-11-28T08:35:47.766Z,96.17
2018-11-28T08:38:15.792Z,94.20
2018-11-28T08:40:44.228Z,97.87
2018-11-28T08:43:12.666Z,81.70
2018-11-28T08:45:41.149Z,84.60
2018-11-28T08:48:09.633Z,79.07
2018-11-28T08:50:38.645Z,88.50
2018-11-28T08:53:07.675Z,92.00
2018-11-28T08:55:36.103Z,79.07
2018-11-28T08:58:04.559Z,85.10
2018-11-28T09:00:33.000Z,83.23
2018-11-28T09:03:01.420Z,78.00
2018-11-28T09:05:29.854Z,87.23
2018-11-28T09:07:58.434Z,81.73
2018-11-28T09:10:26.880Z,81.63
2018-11-28T09:12:55.381Z,85.77
2018-11-28T09:15:26.897Z,79.90
2018-11-28T09:17:55.937Z,73.43
2018-11-28T09:20:24.621Z,73.37
2018-11-28T09:22:53.176Z,74.03
2018-11-28T09:25:21.872Z,87.10
2018-11-28T09:27:57.632Z,81.83
2018-11-28T09:30:26.166Z,94.47
2018-11-28T09:32:54.603Z,90.50
2018-11-28T09:35:23.091Z,87.00
2018-11-28T09:37:51.546Z,82.07
2018-11-28T09:40:23.946Z,86.47
2018-11-28T09:42:53.479Z,102.10
2018-11-28T09:45:22.074Z,83.97
2018-11-28T09:47:50.511Z,91.40
2018-11-28T09:50:20.943Z,95.73
2018-11-28T09:52:49.474Z,85.17
2018-11-28T09:55:20.104Z,85.60
2018-11-28T09:57:48.799Z,81.87
2018-11-28T10:00:19.241Z,91.33
2018-11-28T10:02:48.342Z,81.47
2018-11-28T10:05:23.544Z,74.97
2018-11-28T10:07:52.007Z,80.27
2018-11-28T10:10:20.584Z,78.43
2018-11-28T10:12:49.005Z,75.30
2018-11-28T10:15:22.323Z,74.20
2018-11-28T10:17:50.790Z,77.03
2018-11-28T10:20:19.731Z,77.03
2018-11-28T10:22:49.230Z,71.73
2018-11-28T10:25:20.716Z,77.43
2018-11-28T10:27:51.588Z,71.77
2018-11-28T10:30:21.163Z,76.87
2018-11-28T10:32:50.273Z,75.93
2018-11-28T10:35:18.751Z,76.23
2018-11-28T10:37:47.235Z,80.47
2018-11-28T10:40:17.693Z,79.03
2018-11-28T10:42:47.055Z,71.10
2018-11-28T10:45:17.010Z,75.73
2018-11-28T10:47:45.467Z,69.93
2018-11-28T10:50:15.001Z,70.37
2018-11-28T10:52:43.696Z,65.03
2018-11-28T10:55:16.109Z,65.53
2018-11-28T10:57:44.718Z,65.33
2018-11-28T11:00:29.305Z,59.70
2018-11-28T11:03:03.083Z,64.20
2018-11-28T11:05:36.877Z,66.33
2018-11-28T11:08:11.034Z,62.93
2018-11-28T11:10:44.958Z,59.77
2018-11-28T11:13:18.841Z,59.70
2018-11-28T11:15:52.813Z,61.07
2018-11-28T11:18:21.295Z,56.67
2018-11-28T11:20:49.799Z,57.00
2018-11-28T11:23:18.238Z,56.23
2018-11-28T11:25:46.811Z,61.23
2018-11-28T11:28:15.309Z,56.30
2018-11-28T11:30:43.826Z,59.90
2018-11-28T11:33:12.303Z,59.33
2018-11-28T11:35:40.813Z,54.23
2018-11-28T11:38:09.362Z,52.07
2018-11-28T11:40:37.785Z,58.03
2018-11-28T11:43:06.442Z,63.70
2018-11-28T11:45:34.852Z,58.17
2018-11-28T11:48:03.299Z,60.90
2018-11-28T11:50:31.775Z,57.77
2018-11-28T11:53:00.209Z,54.63
2018-11-28T11:55:28.659Z,63.07
2018-11-28T11:57:57.172Z,59.43
2018-11-28T12:00:27.049Z,65.93
2018-11-28T12:03:17.063Z,58.57
2018-11-28T12:05:48.377Z,59.73
2018-11-28T12:08:16.842Z,60.50
2018-11-28T12:10:45.303Z,57.33
2018-11-28T12:13:13.716Z,56.70
2018-11-28T12:15:42.184Z,63.50
2018-11-28T12:18:10.639Z,56.93
2018-11-28T12:20:42.760Z,58.20
2018-11-28T12:23:11.281Z,62.07
2018-11-28T12:25:39.745Z,57.53
2018-11-28T12:28:08.507Z,56.97
2018-11-28T12:30:36.969Z,57.20
2018-11-28T12:33:05.839Z,60.00
2018-11-28T12:35:34.527Z,60.77
2018-11-28T12:38:03.334Z,59.50
2018-11-28T12:40:34.047Z,58.13
2018-11-28T12:43:03.337Z,54.97
2018-11-28T12:45:31.761Z,54.60
2018-11-28T12:48:00.227Z,55.33
2018-11-28T12:50:29.768Z,48.70
2018-11-28T12:53:00.316Z,50.87
2018-11-28T12:55:29.375Z,52.60
2018-11-28T12:57:58.184Z,55.47
2018-11-28T13:00:28.820Z,50.10
2018-11-28T13:02:57.271Z,54.93
2018-11-28T13:05:26.786Z,48.27
2018-11-28T13:07:55.243Z,48.13
2018-11-28T13:10:28.995Z,52.17
2018-11-28T13:12:57.454Z,54.10
2018-11-28T13:15:26.478Z,51.47
2018-11-28T13:17:54.911Z,50.60
2018-11-28T13:20:23.484Z,47.77
2018-11-28T13:22:53.236Z,52.17
2018-11-28T13:25:22.819Z,55.10
2018-11-28T13:27:51.296Z,48.07
2018-11-28T13:30:20.629Z,48.50
2018-11-28T13:32:49.761Z,52.90
2018-11-28T13:35:21.188Z,53.10
2018-11-28T13:37:50.751Z,52.70
2018-11-28T13:40:19.767Z,50.60
2018-11-28T13:42:48.228Z,48.63
2018-11-28T13:45:20.922Z,47.97
2018-11-28T13:47:51.545Z,46.20
2018-11-28T13:50:20.076Z,48.83
2018-11-28T13:52:48.807Z,47.00
2018-11-28T13:55:40.392Z,47.83
2018-11-28T13:58:07.298Z,45.00
2018-11-28T14:00:35.761Z,44.30
2018-11-28T14:03:04.244Z,48.33
2018-11-28T14:05:32.676Z,45.93
2018-11-28T14:08:01.155Z,50.27
2018-11-28T14:10:29.678Z,51.87
2018-11-28T14:12:58.108Z,49.10
2018-11-28T14:15:26.667Z,49.57
2018-11-28T14:18:01.255Z,50.57
2018-11-28T14:20:29.722Z,48.00
2018-11-28T14:22:58.176Z,44.50
2018-11-28T14:25:26.839Z,47.30
2018-11-28T14:27:55.145Z,46.97
2018-11-28T14:30:25.202Z,47.23
2018-11-28T14:32:53.022Z,54.10
2018-11-28T14:35:22.229Z,46.00
2018-11-28T14:37:50.710Z,45.83
2018-11-28T14:40:21.221Z,44.90
2018-11-28T14:42:53.815Z,49.07
2018-11-28T14:45:22.963Z,47.87
2018-11-28T14:47:51.978Z,47.93
2018-11-28T14:50:26.440Z,48.57
2018-11-28T14:52:57.153Z,45.67
2018-11-28T14:55:28.616Z,49.03
2018-11-28T14:57:57.102Z,48.23
2018-11-28T15:00:26.626Z,48.30
2018-11-28T15:03:13.412Z,50.90
2018-11-28T15:06:57.935Z,48.43
2018-11-28T15:09:33.117Z,44.90
2018-11-28T15:12:02.284Z,49.07
2018-11-28T15:14:30.815Z,48.97
2018-11-28T15:16:59.238Z,46.73
2018-11-28T15:19:27.681Z,45.73
2018-11-28T15:21:56.151Z,46.37
2018-11-28T15:24:24.627Z,40.60
2018-11-28T15:26:53.077Z,44.37
2018-11-28T15:29:21.643Z,45.23
2018-11-28T15:31:50.225Z,48.43
2018-11-28T15:34:18.728Z,45.47
2018-11-28T15:36:47.209Z,47.17
2018-11-28T15:39:15.643Z,46.47
2018-11-28T15:41:44.100Z,43.13
2018-11-28T15:44:12.529Z,44.77
2018-11-28T15:46:40.971Z,41.07
2018-11-28T15:49:09.427Z,42.00
2018-11-28T15:51:37.876Z,44.90
2018-11-28T15:54:06.401Z,40.00
2018-11-28T15:56:34.843Z,45.77
2018-11-28T15:59:03.373Z,41.80
2018-11-28T16:01:31.922Z,43.37
2018-11-28T16:04:00.469Z,41.27
2018-11-28T16:06:28.906Z,41.20
2018-11-28T16:08:57.398Z,39.67
2018-11-28T16:11:25.892Z,44.63
2018-11-28T16:13:54.359Z,49.27
2018-11-28T16:16:22.793Z,45.27
2018-11-28T16:18:51.277Z,49.23
2018-11-28T16:21:19.805Z,48.13
2018-11-28T16:23:48.355Z,44.83
2018-11-28T16:26:16.831Z,45.70
2018-11-28T16:28:45.350Z,46.63
2018-11-28T16:31:13.873Z,49.33
2018-11-28T16:33:42.359Z,51.83
2018-11-28T16:36:10.833Z,47.97
2018-11-28T16:38:39.372Z,43.83
2018-11-28T16:41:07.855Z,44.33
2018-11-28T16:43:36.296Z,44.13
2018-11-28T16:46:04.749Z,44.70
2018-11-28T16:48:33.215Z,51.30
2018-11-28T16:51:01.697Z,40.37
2018-11-28T16:53:30.193Z,44.37
2018-11-28T16:55:58.654Z,38.73
2018-11-28T16:58:27.103Z,47.93
2018-11-28T17:00:55.657Z,54.93
2018-11-28T17:03:24.205Z,57.90
2018-11-28T17:05:52.739Z,57.67
2018-11-28T17:08:21.202Z,62.90
2018-11-28T17:10:49.647Z,64.80
2018-11-28T17:13:18.082Z,58.53
2018-11-28T17:15:46.543Z,56.57
2018-11-28T17:18:15.056Z,58.50
2018-11-28T17:20:43.693Z,55.63
2018-11-28T17:23:12.228Z,58.23
2018-11-28T17:25:40.781Z,57.07
2018-11-28T17:28:09.330Z,59.93
2018-11-28T17:30:37.904Z,53.40
2018-11-28T17:33:06.807Z,51.57
2018-11-28T17:35:35.356Z,50.60
2018-11-28T17:38:03.930Z,53.73
2018-11-28T17:40:32.519Z,49.57
2018-11-28T17:43:01.121Z,56.40
2018-11-28T17:45:30.311Z,59.50
2018-11-28T17:47:58.909Z,55.93
2018-11-28T17:50:28.490Z,57.33
2018-11-28T17:53:02.800Z,62.50
2018-11-28T17:55:36.854Z,66.67
2018-11-28T17:58:06.034Z,66.67
2018-11-28T18:00:34.695Z,69.07
2018-11-28T18:03:03.340Z,67.60
2018-11-28T18:05:32.036Z,71.47
2018-11-28T18:08:00.591Z,71.77
2018-11-28T18:10:29.418Z,57.83
2018-11-28T18:13:12.966Z,65.53
2018-11-28T18:15:44.756Z,66.23
2018-11-28T18:18:16.274Z,66.23
2018-11-28T18:20:50.126Z,63.73
2018-11-28T18:23:14.004Z,60.07
2018-11-28T18:25:43.419Z,61.70
2018-11-28T18:28:12.219Z,66.43
2018-11-28T18:30:40.922Z,65.57
2018-11-28T18:33:11.054Z,71.33
2018-11-28T18:35:39.894Z,76.83
2018-11-28T18:38:08.713Z,86.50
2018-11-28T18:40:37.554Z,86.37
2018-11-28T18:43:07.192Z,79.60
2018-11-28T18:45:37.767Z,69.03
2018-11-28T18:48:07.379Z,67.97
2018-11-28T18:50:36.535Z,81.17
2018-11-28T18:53:06.457Z,74.87
2018-11-28T18:55:35.838Z,69.03
2018-11-28T18:58:05.006Z,86.17
2018-11-28T19:00:33.763Z,81.47
2018-11-28T19:03:03.408Z,74.73
2018-11-28T19:05:32.338Z,72.87
2018-11-28T19:08:01.305Z,69.10
2018-11-28T19:10:30.623Z,68.97
2018-11-28T19:13:00.484Z,65.77
2018-11-28T19:15:29.928Z,72.37
2018-11-28T19:18:00.337Z,58.53
2018-11-28T19:20:29.810Z,62.27
2018-11-28T19:22:59.453Z,63.17
2018-11-28T19:25:29.358Z,66.53
2018-11-28T19:27:59.752Z,67.57
2018-11-28T19:30:36.506Z,57.27
2018-11-28T19:35:33.984Z,60.77
2018-11-28T19:38:03.487Z,56.87
2018-11-28T19:40:49.205Z,57.10
2018-11-28T19:43:18.826Z,57.97
2018-11-28T19:45:49.630Z,57.70
2018-11-28T19:48:18.791Z,65.73
2018-11-28T19:50:48.636Z,57.73
2018-11-28T19:53:19.351Z,57.30
2018-11-28T19:55:49.546Z,56.97
2018-11-28T19:58:19.254Z,60.83
2018-11-28T20:00:49.114Z,56.93
2018-11-28T20:03:18.258Z,61.57
2018-11-28T20:05:49.757Z,56.93
2018-11-28T20:08:18.889Z,54.40
2018-11-28T20:10:49.230Z,50.43
2018-11-28T20:13:19.266Z,50.80
2018-11-28T20:15:51.477Z,57.67
2018-11-28T20:18:20.639Z,48.27
2018-11-28T20:20:51.155Z,50.53
2018-11-28T20:23:21.177Z,51.57
2018-11-28T20:25:51.145Z,47.90
2018-11-28T20:28:20.757Z,50.00
2018-11-28T20:30:50.730Z,49.03
2018-11-28T20:35:53.276Z,48.37
2018-11-28T20:38:31.223Z,49.70
2018-11-28T20:41:01.955Z,55.63
2018-11-28T20:43:31.128Z,49.43
2018-11-28T20:46:00.284Z,52.43
2018-11-28T20:48:29.744Z,51.43
2018-11-28T20:51:01.001Z,47.80
2018-11-28T20:53:30.613Z,48.63
2018-11-28T20:56:02.098Z,50.90
2018-11-28T20:58:32.746Z,49.27
2018-11-28T21:01:02.156Z,50.47
2018-11-28T21:03:32.326Z,50.33
2018-11-28T21:06:02.231Z,52.67
2018-11-28T21:08:31.369Z,50.33
2018-11-28T21:11:00.449Z,51.23
2018-11-28T21:13:30.886Z,51.93
2018-11-28T21:16:00.532Z,51.93
2018-11-28T21:18:30.421Z,50.87
2018-11-28T21:21:00.697Z,51.03
2018-11-28T21:23:31.946Z,48.23
2018-11-28T21:26:02.329Z,46.07
2018-11-28T21:28:31.304Z,50.57
2018-11-28T21:31:00.287Z,52.27
2018-11-28T21:33:29.202Z,48.47
2018-11-28T21:35:59.555Z,54.47
2018-11-28T21:38:28.493Z,58.67
2018-11-28T21:40:57.435Z,55.03
2018-11-28T21:45:54.339Z,51.87
2018-11-28T21:48:23.243Z,52.77
2018-11-28T21:50:52.471Z,54.60
2018-11-28T21:53:21.388Z,52.83
2018-11-28T21:55:50.243Z,55.43
2018-11-28T21:58:19.048Z,52.43
2018-11-28T22:00:47.813Z,47.33
2018-11-28T22:03:16.506Z,52.43
2018-11-28T22:05:45.181Z,48.23
2018-11-28T22:08:13.826Z,54.73
2018-11-28T22:10:42.355Z,51.93
2018-11-28T22:13:10.865Z,49.93
2018-11-28T22:15:39.335Z,46.97
2018-11-28T22:18:07.809Z,54.17
2018-11-28T22:20:36.315Z,56.57
2018-11-28T22:23:04.829Z,59.07
2018-11-28T22:25:33.252Z,53.97
2018-11-28T22:28:01.687Z,57.20
2018-11-28T22:30:30.363Z,49.23
2018-11-28T22:32:59.197Z,51.80
2018-11-28T22:35:27.699Z,56.43
2018-11-28T22:37:56.134Z,54.00
2018-11-28T22:40:29.839Z,48.00
2018-11-28T22:42:58.248Z,54.37
2018-11-28T22:45:27.821Z,50.53
2018-11-28T22:47:56.239Z,52.73
2018-11-28T22:50:24.682Z,49.37
2018-11-28T22:52:53.152Z,51.70
2018-11-28T22:55:21.575Z,49.03
2018-11-28T22:57:50.076Z,48.27
2018-11-28T23:01:23.480Z,50.30
2018-11-28T23:03:51.894Z,45.67
2018-11-28T23:06:20.343Z,52.73
2018-11-28T23:08:48.428Z,59.60
2018-11-28T23:11:16.874Z,58.07
2018-11-28T23:13:45.288Z,54.33
2018-11-28T23:16:13.778Z,56.53
2018-11-28T23:18:42.222Z,53.60
2018-11-28T23:21:10.694Z,50.07
2018-11-28T23:23:39.134Z,52.50
2018-11-28T23:26:07.570Z,49.50
2018-11-28T23:28:36.009Z,45.93
2018-11-28T23:31:04.481Z,47.17
2018-11-28T23:33:32.894Z,52.33
2018-11-28T23:36:01.380Z,51.93
2018-11-28T23:38:29.820Z,47.40
2018-11-28T23:40:58.249Z,53.43
2018-11-28T23:43:26.678Z,49.87
2018-11-28T23:45:55.104Z,47.07
2018-11-28T23:48:23.532Z,53.27
2018-11-28T23:50:51.962Z,52.53
2018-11-28T23:53:20.409Z,48.43
2018-11-28T23:55:48.808Z,49.37
2018-11-28T23:58:17.250Z,52.40
